sensor_id;sensor_type;location;lat;lon;timestamp;P1;durP1;ratioP1;P2;durP2;ratioP2
64826;SDS011;51265;53.972;12.286;2023-06-26T00:01:29;6.85;;;5.63;;
64826;SDS011;51265;53.972;12.286;2023-06-26T00:03:57;7.95;;;5.78;;
64826;SDS011;51265;53.972;12.286;2023-06-26T00:06:24;6.22;;;5.20;;
64826;SDS011;51265;53.972;12.286;2023-06-26T00:08:52;6.32;;;5.55;;
64826;SDS011;51265;53.972;12.286;2023-06-26T00:11:50;6.53;;;5.78;;
64826;SDS011;51265;53.972;12.286;2023-06-26T00:14:17;7.57;;;5.97;;
64826;SDS011;51265;53.972;12.286;2023-06-26T00:16:46;9.23;;;6.28;;
64826;SDS011;51265;53.972;12.286;2023-06-26T00:19:15;7.43;;;5.88;;
64826;SDS011;51265;53.972;12.286;2023-06-26T00:21:41;7.10;;;5.97;;
64826;SDS011;51265;53.972;12.286;2023-06-26T00:24:12;7.22;;;5.57;;
64826;SDS011;51265;53.972;12.286;2023-06-26T00:26:39;8.85;;;5.65;;
64826;SDS011;51265;53.972;12.286;2023-06-26T00:29:06;8.38;;;5.68;;
64826;SDS011;51265;53.972;12.286;2023-06-26T00:31:33;7.35;;;5.90;;
64826;SDS011;51265;53.972;12.286;2023-06-26T00:34:01;6.57;;;5.47;;
64826;SDS011;51265;53.972;12.286;2023-06-26T00:36:31;6.68;;;5.93;;
64826;SDS011;51265;53.972;12.286;2023-06-26T00:38:59;6.43;;;5.28;;
64826;SDS011;51265;53.972;12.286;2023-06-26T00:41:27;6.60;;;5.60;;
64826;SDS011;51265;53.972;12.286;2023-06-26T00:43:53;6.10;;;5.38;;
64826;SDS011;51265;53.972;12.286;2023-06-26T00:46:19;6.03;;;5.10;;
64826;SDS011;51265;53.972;12.286;2023-06-26T00:48:46;7.47;;;5.93;;
64826;SDS011;51265;53.972;12.286;2023-06-26T00:51:14;8.68;;;5.80;;
64826;SDS011;51265;53.972;12.286;2023-06-26T00:53:40;6.78;;;5.30;;
64826;SDS011;51265;53.972;12.286;2023-06-26T00:56:07;8.20;;;5.10;;
64826;SDS011;51265;53.972;12.286;2023-06-26T00:58:42;7.82;;;5.63;;
64826;SDS011;51265;53.972;12.286;2023-06-26T01:01:08;7.78;;;5.40;;
64826;SDS011;51265;53.972;12.286;2023-06-26T01:03:34;7.00;;;5.97;;
64826;SDS011;51265;53.972;12.286;2023-06-26T01:06:03;7.97;;;5.35;;
64826;SDS011;51265;53.972;12.286;2023-06-26T01:08:31;7.22;;;5.68;;
64826;SDS011;51265;53.972;12.286;2023-06-26T01:10:58;8.43;;;5.68;;
64826;SDS011;51265;53.972;12.286;2023-06-26T01:13:25;6.63;;;5.32;;
64826;SDS011;51265;53.972;12.286;2023-06-26T01:15:51;7.50;;;5.50;;
64826;SDS011;51265;53.972;12.286;2023-06-26T01:18:19;6.75;;;5.38;;
64826;SDS011;51265;53.972;12.286;2023-06-26T01:20:46;6.93;;;5.80;;
64826;SDS011;51265;53.972;12.286;2023-06-26T01:23:20;7.10;;;5.13;;
64826;SDS011;51265;53.972;12.286;2023-06-26T01:28:34;5.95;;;5.30;;
64826;SDS011;51265;53.972;12.286;2023-06-26T01:31:03;7.65;;;5.82;;
64826;SDS011;51265;53.972;12.286;2023-06-26T01:33:32;9.10;;;5.68;;
64826;SDS011;51265;53.972;12.286;2023-06-26T01:35:58;8.15;;;6.00;;
64826;SDS011;51265;53.972;12.286;2023-06-26T01:38:27;7.22;;;5.88;;
64826;SDS011;51265;53.972;12.286;2023-06-26T01:40:56;6.90;;;5.65;;
64826;SDS011;51265;53.972;12.286;2023-06-26T01:46:40;6.13;;;5.38;;
64826;SDS011;51265;53.972;12.286;2023-06-26T01:49:25;8.50;;;6.07;;
64826;SDS011;51265;53.972;12.286;2023-06-26T01:52:20;8.18;;;6.18;;
64826;SDS011;51265;53.972;12.286;2023-06-26T01:57:52;9.77;;;6.30;;
64826;SDS011;51265;53.972;12.286;2023-06-26T02:00:21;7.32;;;5.55;;
64826;SDS011;51265;53.972;12.286;2023-06-26T02:02:50;7.70;;;5.80;;
64826;SDS011;51265;53.972;12.286;2023-06-26T02:05:16;6.57;;;5.88;;
64826;SDS011;51265;53.972;12.286;2023-06-26T02:07:42;6.60;;;5.50;;
64826;SDS011;51265;53.972;12.286;2023-06-26T02:10:09;8.65;;;5.40;;
64826;SDS011;51265;53.972;12.286;2023-06-26T02:12:36;7.57;;;6.50;;
64826;SDS011;51265;53.972;12.286;2023-06-26T02:15:03;6.40;;;5.78;;
64826;SDS011;51265;53.972;12.286;2023-06-26T02:17:30;6.32;;;5.57;;
64826;SDS011;51265;53.972;12.286;2023-06-26T02:19:56;7.38;;;5.82;;
64826;SDS011;51265;53.972;12.286;2023-06-26T02:22:23;7.75;;;5.45;;
64826;SDS011;51265;53.972;12.286;2023-06-26T02:24:49;7.30;;;5.75;;
64826;SDS011;51265;53.972;12.286;2023-06-26T02:27:15;8.20;;;6.45;;
64826;SDS011;51265;53.972;12.286;2023-06-26T02:29:41;8.13;;;6.55;;
64826;SDS011;51265;53.972;12.286;2023-06-26T02:32:08;7.88;;;6.50;;
64826;SDS011;51265;53.972;12.286;2023-06-26T02:34:35;8.50;;;6.25;;
64826;SDS011;51265;53.972;12.286;2023-06-26T02:37:01;7.50;;;6.63;;
64826;SDS011;51265;53.972;12.286;2023-06-26T02:39:28;6.72;;;6.03;;
64826;SDS011;51265;53.972;12.286;2023-06-26T02:41:55;7.57;;;6.20;;
64826;SDS011;51265;53.972;12.286;2023-06-26T02:44:23;8.30;;;6.53;;
64826;SDS011;51265;53.972;12.286;2023-06-26T02:46:49;6.85;;;6.13;;
64826;SDS011;51265;53.972;12.286;2023-06-26T02:49:15;12.80;;;6.03;;
64826;SDS011;51265;53.972;12.286;2023-06-26T02:51:42;10.60;;;6.82;;
64826;SDS011;51265;53.972;12.286;2023-06-26T02:54:17;9.00;;;7.63;;
64826;SDS011;51265;53.972;12.286;2023-06-26T02:56:46;8.23;;;6.82;;
64826;SDS011;51265;53.972;12.286;2023-06-26T02:59:12;9.07;;;7.05;;
64826;SDS011;51265;53.972;12.286;2023-06-26T03:01:39;8.52;;;6.70;;
64826;SDS011;51265;53.972;12.286;2023-06-26T03:04:05;8.80;;;6.55;;
64826;SDS011;51265;53.972;12.286;2023-06-26T03:06:32;10.07;;;7.10;;
64826;SDS011;51265;53.972;12.286;2023-06-26T03:08:59;8.90;;;6.85;;
64826;SDS011;51265;53.972;12.286;2023-06-26T03:11:25;7.32;;;6.60;;
64826;SDS011;51265;53.972;12.286;2023-06-26T03:13:51;7.10;;;6.38;;
64826;SDS011;51265;53.972;12.286;2023-06-26T03:16:18;10.10;;;7.25;;
64826;SDS011;51265;53.972;12.286;2023-06-26T03:18:44;9.00;;;6.55;;
64826;SDS011;51265;53.972;12.286;2023-06-26T03:21:10;8.45;;;7.38;;
64826;SDS011;51265;53.972;12.286;2023-06-26T03:23:37;10.60;;;6.90;;
64826;SDS011;51265;53.972;12.286;2023-06-26T03:26:03;7.88;;;6.95;;
64826;SDS011;51265;53.972;12.286;2023-06-26T03:28:32;7.72;;;6.97;;
64826;SDS011;51265;53.972;12.286;2023-06-26T03:30:58;10.95;;;7.32;;
64826;SDS011;51265;53.972;12.286;2023-06-26T03:33:25;10.25;;;7.93;;
64826;SDS011;51265;53.972;12.286;2023-06-26T03:35:52;9.85;;;7.03;;
64826;SDS011;51265;53.972;12.286;2023-06-26T03:38:19;10.40;;;6.93;;
64826;SDS011;51265;53.972;12.286;2023-06-26T03:40:46;8.45;;;7.03;;
64826;SDS011;51265;53.972;12.286;2023-06-26T03:43:13;8.10;;;6.93;;
64826;SDS011;51265;53.972;12.286;2023-06-26T03:46:05;9.50;;;7.30;;
64826;SDS011;51265;53.972;12.286;2023-06-26T03:48:31;10.60;;;7.43;;
64826;SDS011;51265;53.972;12.286;2023-06-26T03:50:58;11.13;;;7.38;;
64826;SDS011;51265;53.972;12.286;2023-06-26T03:53:24;13.65;;;7.68;;
64826;SDS011;51265;53.972;12.286;2023-06-26T03:55:50;8.50;;;7.10;;
64826;SDS011;51265;53.972;12.286;2023-06-26T03:58:17;9.02;;;7.38;;
64826;SDS011;51265;53.972;12.286;2023-06-26T04:00:43;9.85;;;6.75;;
64826;SDS011;51265;53.972;12.286;2023-06-26T04:03:09;7.95;;;6.75;;
64826;SDS011;51265;53.972;12.286;2023-06-26T04:05:37;10.77;;;7.22;;
64826;SDS011;51265;53.972;12.286;2023-06-26T04:08:03;8.93;;;7.53;;
64826;SDS011;51265;53.972;12.286;2023-06-26T04:10:29;9.48;;;6.78;;
64826;SDS011;51265;53.972;12.286;2023-06-26T04:12:55;8.18;;;6.80;;
64826;SDS011;51265;53.972;12.286;2023-06-26T04:15:22;8.05;;;6.82;;
64826;SDS011;51265;53.972;12.286;2023-06-26T04:17:49;7.05;;;6.15;;
64826;SDS011;51265;53.972;12.286;2023-06-26T04:20:15;8.05;;;6.78;;
64826;SDS011;51265;53.972;12.286;2023-06-26T04:22:41;8.68;;;7.30;;
64826;SDS011;51265;53.972;12.286;2023-06-26T04:25:08;8.10;;;7.28;;
64826;SDS011;51265;53.972;12.286;2023-06-26T04:27:34;8.98;;;7.72;;
64826;SDS011;51265;53.972;12.286;2023-06-26T04:30:01;8.30;;;7.22;;
64826;SDS011;51265;53.972;12.286;2023-06-26T04:32:27;7.47;;;6.65;;
64826;SDS011;51265;53.972;12.286;2023-06-26T04:34:54;9.02;;;7.03;;
64826;SDS011;51265;53.972;12.286;2023-06-26T04:37:20;8.27;;;6.82;;
64826;SDS011;51265;53.972;12.286;2023-06-26T04:39:48;8.45;;;7.50;;
64826;SDS011;51265;53.972;12.286;2023-06-26T04:42:14;8.98;;;7.18;;
64826;SDS011;51265;53.972;12.286;2023-06-26T04:44:41;9.48;;;7.45;;
64826;SDS011;51265;53.972;12.286;2023-06-26T04:47:07;17.50;;;15.13;;
64826;SDS011;51265;53.972;12.286;2023-06-26T04:49:34;28.27;;;21.95;;
64826;SDS011;51265;53.972;12.286;2023-06-26T04:52:01;24.83;;;20.67;;
64826;SDS011;51265;53.972;12.286;2023-06-26T04:54:27;13.45;;;9.20;;
64826;SDS011;51265;53.972;12.286;2023-06-26T04:56:56;9.55;;;8.20;;
64826;SDS011;51265;53.972;12.286;2023-06-26T04:59:23;9.80;;;8.23;;
64826;SDS011;51265;53.972;12.286;2023-06-26T05:01:49;10.40;;;8.73;;
64826;SDS011;51265;53.972;12.286;2023-06-26T05:04:16;9.95;;;7.70;;
64826;SDS011;51265;53.972;12.286;2023-06-26T05:06:42;10.60;;;8.25;;
64826;SDS011;51265;53.972;12.286;2023-06-26T05:09:09;10.05;;;8.35;;
64826;SDS011;51265;53.972;12.286;2023-06-26T05:11:36;8.65;;;7.55;;
64826;SDS011;51265;53.972;12.286;2023-06-26T05:14:03;8.40;;;7.22;;
64826;SDS011;51265;53.972;12.286;2023-06-26T05:16:33;8.60;;;7.70;;
64826;SDS011;51265;53.972;12.286;2023-06-26T05:19:00;8.15;;;7.28;;
64826;SDS011;51265;53.972;12.286;2023-06-26T05:21:28;9.63;;;7.60;;
64826;SDS011;51265;53.972;12.286;2023-06-26T05:23:55;9.27;;;7.78;;
64826;SDS011;51265;53.972;12.286;2023-06-26T05:26:23;10.85;;;7.55;;
64826;SDS011;51265;53.972;12.286;2023-06-26T05:28:50;7.43;;;6.50;;
64826;SDS011;51265;53.972;12.286;2023-06-26T05:31:17;7.53;;;6.70;;
64826;SDS011;51265;53.972;12.286;2023-06-26T05:33:43;6.97;;;6.25;;
64826;SDS011;51265;53.972;12.286;2023-06-26T05:36:11;10.75;;;7.00;;
64826;SDS011;51265;53.972;12.286;2023-06-26T05:38:38;11.82;;;7.63;;
64826;SDS011;51265;53.972;12.286;2023-06-26T05:41:05;10.50;;;6.13;;
64826;SDS011;51265;53.972;12.286;2023-06-26T05:43:32;10.55;;;8.13;;
64826;SDS011;51265;53.972;12.286;2023-06-26T05:45:58;10.45;;;8.88;;
64826;SDS011;51265;53.972;12.286;2023-06-26T05:48:25;7.93;;;6.93;;
64826;SDS011;51265;53.972;12.286;2023-06-26T05:50:51;7.38;;;6.57;;
64826;SDS011;51265;53.972;12.286;2023-06-26T05:53:18;8.32;;;6.65;;
64826;SDS011;51265;53.972;12.286;2023-06-26T05:55:45;8.95;;;6.30;;
64826;SDS011;51265;53.972;12.286;2023-06-26T05:58:12;8.15;;;6.22;;
64826;SDS011;51265;53.972;12.286;2023-06-26T06:00:39;9.18;;;6.05;;
64826;SDS011;51265;53.972;12.286;2023-06-26T06:03:07;8.52;;;6.00;;
64826;SDS011;51265;53.972;12.286;2023-06-26T06:05:36;8.55;;;6.30;;
64826;SDS011;51265;53.972;12.286;2023-06-26T06:08:03;6.90;;;5.80;;
64826;SDS011;51265;53.972;12.286;2023-06-26T06:10:29;7.57;;;5.40;;
64826;SDS011;51265;53.972;12.286;2023-06-26T06:12:56;8.27;;;5.72;;
64826;SDS011;51265;53.972;12.286;2023-06-26T06:15:22;6.63;;;5.30;;
64826;SDS011;51265;53.972;12.286;2023-06-26T06:17:49;10.38;;;5.57;;
64826;SDS011;51265;53.972;12.286;2023-06-26T06:20:16;8.07;;;5.53;;
64826;SDS011;51265;53.972;12.286;2023-06-26T06:22:43;6.18;;;5.57;;
64826;SDS011;51265;53.972;12.286;2023-06-26T06:25:09;7.03;;;5.80;;
64826;SDS011;51265;53.972;12.286;2023-06-26T06:27:36;6.30;;;5.32;;
64826;SDS011;51265;53.972;12.286;2023-06-26T06:30:02;5.75;;;4.65;;
64826;SDS011;51265;53.972;12.286;2023-06-26T06:32:29;6.75;;;5.25;;
64826;SDS011;51265;53.972;12.286;2023-06-26T06:34:55;8.20;;;4.85;;
64826;SDS011;51265;53.972;12.286;2023-06-26T06:37:23;6.38;;;4.60;;
64826;SDS011;51265;53.972;12.286;2023-06-26T06:39:49;5.97;;;4.60;;
64826;SDS011;51265;53.972;12.286;2023-06-26T06:42:16;7.90;;;4.97;;
64826;SDS011;51265;53.972;12.286;2023-06-26T06:44:42;6.70;;;4.88;;
64826;SDS011;51265;53.972;12.286;2023-06-26T06:47:08;7.15;;;4.70;;
64826;SDS011;51265;53.972;12.286;2023-06-26T06:49:35;5.60;;;5.05;;
64826;SDS011;51265;53.972;12.286;2023-06-26T06:52:01;5.63;;;4.80;;
64826;SDS011;51265;53.972;12.286;2023-06-26T06:54:28;5.40;;;4.90;;
64826;SDS011;51265;53.972;12.286;2023-06-26T06:56:54;8.98;;;4.80;;
64826;SDS011;51265;53.972;12.286;2023-06-26T06:59:21;5.40;;;4.55;;
64826;SDS011;51265;53.972;12.286;2023-06-26T07:01:47;6.07;;;4.57;;
64826;SDS011;51265;53.972;12.286;2023-06-26T07:04:14;7.25;;;4.72;;
64826;SDS011;51265;53.972;12.286;2023-06-26T07:06:41;6.25;;;4.57;;
64826;SDS011;51265;53.972;12.286;2023-06-26T07:09:07;6.32;;;4.43;;
64826;SDS011;51265;53.972;12.286;2023-06-26T07:11:33;7.93;;;4.70;;
64826;SDS011;51265;53.972;12.286;2023-06-26T07:14:00;7.00;;;4.15;;
64826;SDS011;51265;53.972;12.286;2023-06-26T07:16:26;7.25;;;4.57;;
64826;SDS011;51265;53.972;12.286;2023-06-26T07:18:53;5.95;;;4.28;;
64826;SDS011;51265;53.972;12.286;2023-06-26T07:21:20;6.65;;;4.40;;
64826;SDS011;51265;53.972;12.286;2023-06-26T07:23:47;5.65;;;4.50;;
64826;SDS011;51265;53.972;12.286;2023-06-26T07:26:14;6.10;;;4.30;;
64826;SDS011;51265;53.972;12.286;2023-06-26T07:28:41;5.82;;;4.10;;
64826;SDS011;51265;53.972;12.286;2023-06-26T07:31:07;6.53;;;4.05;;
64826;SDS011;51265;53.972;12.286;2023-06-26T07:33:33;6.28;;;4.20;;
64826;SDS011;51265;53.972;12.286;2023-06-26T07:36:00;6.40;;;4.18;;
64826;SDS011;51265;53.972;12.286;2023-06-26T07:38:26;5.68;;;4.22;;
64826;SDS011;51265;53.972;12.286;2023-06-26T07:40:53;5.00;;;4.10;;
64826;SDS011;51265;53.972;12.286;2023-06-26T07:43:19;6.47;;;3.95;;
64826;SDS011;51265;53.972;12.286;2023-06-26T07:45:45;6.30;;;4.15;;
64826;SDS011;51265;53.972;12.286;2023-06-26T07:48:12;4.78;;;4.05;;
64826;SDS011;51265;53.972;12.286;2023-06-26T07:50:38;8.18;;;4.32;;
64826;SDS011;51265;53.972;12.286;2023-06-26T07:53:04;6.25;;;4.30;;
64826;SDS011;51265;53.972;12.286;2023-06-26T07:55:31;4.28;;;3.80;;
64826;SDS011;51265;53.972;12.286;2023-06-26T07:57:58;5.38;;;3.55;;
64826;SDS011;51265;53.972;12.286;2023-06-26T08:00:24;5.57;;;3.38;;
64826;SDS011;51265;53.972;12.286;2023-06-26T08:02:52;4.45;;;3.25;;
64826;SDS011;51265;53.972;12.286;2023-06-26T08:05:19;5.82;;;3.38;;
64826;SDS011;51265;53.972;12.286;2023-06-26T08:07:45;4.43;;;3.40;;
64826;SDS011;51265;53.972;12.286;2023-06-26T08:10:12;6.32;;;3.60;;
64826;SDS011;51265;53.972;12.286;2023-06-26T08:12:39;7.72;;;3.25;;
64826;SDS011;51265;53.972;12.286;2023-06-26T08:15:06;10.80;;;3.63;;
64826;SDS011;51265;53.972;12.286;2023-06-26T08:17:33;6.40;;;3.30;;
64826;SDS011;51265;53.972;12.286;2023-06-26T08:20:00;5.20;;;2.88;;
64826;SDS011;51265;53.972;12.286;2023-06-26T08:22:27;5.20;;;3.25;;
64826;SDS011;51265;53.972;12.286;2023-06-26T08:24:53;8.20;;;3.42;;
64826;SDS011;51265;53.972;12.286;2023-06-26T08:29:52;5.22;;;3.13;;
64826;SDS011;51265;53.972;12.286;2023-06-26T08:32:18;9.02;;;3.47;;
64826;SDS011;51265;53.972;12.286;2023-06-26T08:34:45;6.30;;;3.08;;
64826;SDS011;51265;53.972;12.286;2023-06-26T08:37:11;3.55;;;3.03;;
64826;SDS011;51265;53.972;12.286;2023-06-26T08:39:38;6.00;;;3.35;;
64826;SDS011;51265;53.972;12.286;2023-06-26T08:42:04;3.40;;;3.05;;
64826;SDS011;51265;53.972;12.286;2023-06-26T08:44:31;4.32;;;3.00;;
64826;SDS011;51265;53.972;12.286;2023-06-26T08:46:59;4.35;;;3.00;;
64826;SDS011;51265;53.972;12.286;2023-06-26T08:49:28;4.38;;;3.15;;
64826;SDS011;51265;53.972;12.286;2023-06-26T08:52:22;4.05;;;3.03;;
64826;SDS011;51265;53.972;12.286;2023-06-26T08:54:53;3.88;;;2.70;;
64826;SDS011;51265;53.972;12.286;2023-06-26T08:57:23;3.85;;;2.65;;
64826;SDS011;51265;53.972;12.286;2023-06-26T08:59:51;3.55;;;2.85;;
64826;SDS011;51265;53.972;12.286;2023-06-26T09:02:18;4.10;;;2.92;;
64826;SDS011;51265;53.972;12.286;2023-06-26T09:04:47;3.97;;;2.67;;
64826;SDS011;51265;53.972;12.286;2023-06-26T09:07:15;5.30;;;3.13;;
64826;SDS011;51265;53.972;12.286;2023-06-26T09:09:42;5.68;;;3.13;;
64826;SDS011;51265;53.972;12.286;2023-06-26T09:12:09;7.57;;;3.13;;
64826;SDS011;51265;53.972;12.286;2023-06-26T09:14:36;5.82;;;2.90;;
64826;SDS011;51265;53.972;12.286;2023-06-26T09:17:03;5.78;;;3.00;;
64826;SDS011;51265;53.972;12.286;2023-06-26T09:19:30;4.35;;;2.72;;
64826;SDS011;51265;53.972;12.286;2023-06-26T09:21:56;5.32;;;2.67;;
64826;SDS011;51265;53.972;12.286;2023-06-26T09:24:23;4.25;;;2.92;;
64826;SDS011;51265;53.972;12.286;2023-06-26T09:27:03;4.85;;;3.13;;
64826;SDS011;51265;53.972;12.286;2023-06-26T09:29:30;6.50;;;2.85;;
64826;SDS011;51265;53.972;12.286;2023-06-26T09:31:57;4.97;;;3.08;;
64826;SDS011;51265;53.972;12.286;2023-06-26T09:34:32;5.80;;;3.10;;
64826;SDS011;51265;53.972;12.286;2023-06-26T09:36:59;6.18;;;2.60;;
64826;SDS011;51265;53.972;12.286;2023-06-26T09:39:30;6.45;;;3.17;;
64826;SDS011;51265;53.972;12.286;2023-06-26T09:41:58;4.75;;;2.85;;
64826;SDS011;51265;53.972;12.286;2023-06-26T09:44:25;3.63;;;2.50;;
64826;SDS011;51265;53.972;12.286;2023-06-26T09:46:51;3.28;;;2.58;;
64826;SDS011;51265;53.972;12.286;2023-06-26T09:49:20;6.05;;;2.85;;
64826;SDS011;51265;53.972;12.286;2023-06-26T09:51:50;5.88;;;2.90;;
64826;SDS011;51265;53.972;12.286;2023-06-26T09:54:16;5.35;;;2.72;;
64826;SDS011;51265;53.972;12.286;2023-06-26T09:56:46;9.63;;;2.90;;
64826;SDS011;51265;53.972;12.286;2023-06-26T09:59:12;5.13;;;2.78;;
64826;SDS011;51265;53.972;12.286;2023-06-26T10:01:40;3.97;;;2.90;;
64826;SDS011;51265;53.972;12.286;2023-06-26T10:04:07;3.42;;;3.13;;
64826;SDS011;51265;53.972;12.286;2023-06-26T10:06:40;4.50;;;3.10;;
64826;SDS011;51265;53.972;12.286;2023-06-26T10:09:11;4.60;;;2.95;;
64826;SDS011;51265;53.972;12.286;2023-06-26T10:14:13;5.03;;;2.97;;
64826;SDS011;51265;53.972;12.286;2023-06-26T10:16:40;4.00;;;2.72;;
64826;SDS011;51265;53.972;12.286;2023-06-26T10:19:10;5.32;;;2.83;;
64826;SDS011;51265;53.972;12.286;2023-06-26T10:21:37;6.50;;;3.17;;
64826;SDS011;51265;53.972;12.286;2023-06-26T10:24:06;4.72;;;2.90;;
64826;SDS011;51265;53.972;12.286;2023-06-26T10:26:35;5.00;;;2.75;;
64826;SDS011;51265;53.972;12.286;2023-06-26T10:29:10;6.10;;;3.17;;
64826;SDS011;51265;53.972;12.286;2023-06-26T10:31:39;3.90;;;2.78;;
64826;SDS011;51265;53.972;12.286;2023-06-26T10:34:09;6.72;;;2.72;;
64826;SDS011;51265;53.972;12.286;2023-06-26T10:36:35;4.78;;;2.90;;
64826;SDS011;51265;53.972;12.286;2023-06-26T10:39:05;4.07;;;3.15;;
64826;SDS011;51265;53.972;12.286;2023-06-26T10:41:36;3.78;;;3.10;;
64826;SDS011;51265;53.972;12.286;2023-06-26T10:44:08;6.10;;;2.80;;
64826;SDS011;51265;53.972;12.286;2023-06-26T10:46:48;6.28;;;3.03;;
64826;SDS011;51265;53.972;12.286;2023-06-26T10:49:16;8.18;;;3.45;;
64826;SDS011;51265;53.972;12.286;2023-06-26T10:51:47;5.82;;;3.05;;
64826;SDS011;51265;53.972;12.286;2023-06-26T10:54:15;7.03;;;2.85;;
64826;SDS011;51265;53.972;12.286;2023-06-26T10:59:14;3.83;;;2.70;;
64826;SDS011;51265;53.972;12.286;2023-06-26T11:01:42;3.35;;;2.97;;
64826;SDS011;51265;53.972;12.286;2023-06-26T11:04:09;4.03;;;2.92;;
64826;SDS011;51265;53.972;12.286;2023-06-26T11:06:37;5.07;;;3.00;;
64826;SDS011;51265;53.972;12.286;2023-06-26T11:09:09;3.80;;;2.72;;
64826;SDS011;51265;53.972;12.286;2023-06-26T11:14:20;5.45;;;3.08;;
64826;SDS011;51265;53.972;12.286;2023-06-26T11:16:48;4.15;;;3.17;;
64826;SDS011;51265;53.972;12.286;2023-06-26T11:19:18;3.55;;;3.03;;
64826;SDS011;51265;53.972;12.286;2023-06-26T11:21:46;3.33;;;2.65;;
64826;SDS011;51265;53.972;12.286;2023-06-26T11:24:13;5.20;;;3.40;;
64826;SDS011;51265;53.972;12.286;2023-06-26T11:26:43;4.30;;;3.20;;
64826;SDS011;51265;53.972;12.286;2023-06-26T11:29:11;6.53;;;2.90;;
64826;SDS011;51265;53.972;12.286;2023-06-26T11:31:38;3.38;;;2.75;;
64826;SDS011;51265;53.972;12.286;2023-06-26T11:34:08;5.05;;;2.70;;
64826;SDS011;51265;53.972;12.286;2023-06-26T11:36:38;4.15;;;2.85;;
64826;SDS011;51265;53.972;12.286;2023-06-26T11:39:07;3.80;;;3.05;;
64826;SDS011;51265;53.972;12.286;2023-06-26T11:41:35;4.97;;;3.10;;
64826;SDS011;51265;53.972;12.286;2023-06-26T11:44:10;7.85;;;2.97;;
64826;SDS011;51265;53.972;12.286;2023-06-26T11:46:36;5.20;;;3.10;;
64826;SDS011;51265;53.972;12.286;2023-06-26T11:49:04;4.95;;;2.85;;
64826;SDS011;51265;53.972;12.286;2023-06-26T11:51:31;6.03;;;3.20;;
64826;SDS011;51265;53.972;12.286;2023-06-26T11:54:00;4.80;;;3.30;;
64826;SDS011;51265;53.972;12.286;2023-06-26T11:56:28;7.10;;;3.22;;
64826;SDS011;51265;53.972;12.286;2023-06-26T12:04:00;4.07;;;3.10;;
64826;SDS011;51265;53.972;12.286;2023-06-26T12:06:29;3.53;;;2.97;;
64826;SDS011;51265;53.972;12.286;2023-06-26T12:08:58;3.70;;;3.33;;
64826;SDS011;51265;53.972;12.286;2023-06-26T12:11:26;3.47;;;3.13;;
64826;SDS011;51265;53.972;12.286;2023-06-26T12:13:55;9.75;;;3.60;;
64826;SDS011;51265;53.972;12.286;2023-06-26T12:16:22;5.32;;;3.60;;
64826;SDS011;51265;53.972;12.286;2023-06-26T12:18:49;7.60;;;3.72;;
64826;SDS011;51265;53.972;12.286;2023-06-26T12:24:04;5.18;;;3.60;;
64826;SDS011;51265;53.972;12.286;2023-06-26T12:26:32;6.90;;;3.55;;
64826;SDS011;51265;53.972;12.286;2023-06-26T12:29:05;12.20;;;5.03;;
64826;SDS011;51265;53.972;12.286;2023-06-26T12:31:33;10.10;;;5.10;;
64826;SDS011;51265;53.972;12.286;2023-06-26T12:34:00;15.88;;;6.35;;
64826;SDS011;51265;53.972;12.286;2023-06-26T12:36:27;26.95;;;8.55;;
64826;SDS011;51265;53.972;12.286;2023-06-26T12:38:53;21.00;;;9.80;;
64826;SDS011;51265;53.972;12.286;2023-06-26T12:41:23;23.13;;;10.77;;
64826;SDS011;51265;53.972;12.286;2023-06-26T12:43:55;19.17;;;11.65;;
64826;SDS011;51265;53.972;12.286;2023-06-26T12:46:33;21.85;;;14.50;;
64826;SDS011;51265;53.972;12.286;2023-06-26T12:49:01;33.15;;;20.17;;
64826;SDS011;51265;53.972;12.286;2023-06-26T12:51:29;35.15;;;24.98;;
64826;SDS011;51265;53.972;12.286;2023-06-26T12:53:55;36.95;;;26.45;;
64826;SDS011;51265;53.972;12.286;2023-06-26T12:56:21;34.65;;;26.42;;
64826;SDS011;51265;53.972;12.286;2023-06-26T12:58:48;39.22;;;27.23;;
64826;SDS011;51265;53.972;12.286;2023-06-26T13:01:14;42.97;;;28.70;;
64826;SDS011;51265;53.972;12.286;2023-06-26T13:03:41;43.15;;;28.75;;
64826;SDS011;51265;53.972;12.286;2023-06-26T13:06:07;43.88;;;29.38;;
64826;SDS011;51265;53.972;12.286;2023-06-26T13:08:34;44.15;;;28.92;;
64826;SDS011;51265;53.972;12.286;2023-06-26T13:11:00;48.03;;;27.63;;
64826;SDS011;51265;53.972;12.286;2023-06-26T13:13:27;59.30;;;30.65;;
64826;SDS011;51265;53.972;12.286;2023-06-26T13:15:53;44.50;;;23.77;;
64826;SDS011;51265;53.972;12.286;2023-06-26T13:18:19;36.90;;;24.00;;
64826;SDS011;51265;53.972;12.286;2023-06-26T13:20:46;42.58;;;24.73;;
64826;SDS011;51265;53.972;12.286;2023-06-26T13:23:12;38.28;;;22.73;;
64826;SDS011;51265;53.972;12.286;2023-06-26T13:25:39;41.22;;;22.08;;
64826;SDS011;51265;53.972;12.286;2023-06-26T13:28:05;38.33;;;22.00;;
64826;SDS011;51265;53.972;12.286;2023-06-26T13:30:32;33.13;;;24.05;;
64826;SDS011;51265;53.972;12.286;2023-06-26T13:32:58;43.55;;;23.23;;
64826;SDS011;51265;53.972;12.286;2023-06-26T13:35:24;33.25;;;20.83;;
64826;SDS011;51265;53.972;12.286;2023-06-26T13:37:51;40.05;;;22.48;;
64826;SDS011;51265;53.972;12.286;2023-06-26T13:40:17;29.90;;;18.88;;
64826;SDS011;51265;53.972;12.286;2023-06-26T13:42:44;24.73;;;17.27;;
64826;SDS011;51265;53.972;12.286;2023-06-26T13:45:11;24.88;;;16.92;;
64826;SDS011;51265;53.972;12.286;2023-06-26T13:47:37;25.27;;;15.10;;
64826;SDS011;51265;53.972;12.286;2023-06-26T13:50:09;19.42;;;15.07;;
64826;SDS011;51265;53.972;12.286;2023-06-26T13:52:36;23.88;;;15.48;;
64826;SDS011;51265;53.972;12.286;2023-06-26T13:55:03;22.33;;;15.25;;
64826;SDS011;51265;53.972;12.286;2023-06-26T13:57:33;22.42;;;16.38;;
64826;SDS011;51265;53.972;12.286;2023-06-26T13:59:59;21.58;;;17.00;;
64826;SDS011;51265;53.972;12.286;2023-06-26T14:02:26;35.72;;;17.98;;
64826;SDS011;51265;53.972;12.286;2023-06-26T14:04:52;25.63;;;19.48;;
64826;SDS011;51265;53.972;12.286;2023-06-26T14:07:18;27.65;;;18.40;;
64826;SDS011;51265;53.972;12.286;2023-06-26T14:09:45;27.15;;;18.98;;
64826;SDS011;51265;53.972;12.286;2023-06-26T14:12:11;33.40;;;22.77;;
64826;SDS011;51265;53.972;12.286;2023-06-26T14:14:37;26.65;;;19.25;;
64826;SDS011;51265;53.972;12.286;2023-06-26T14:17:05;22.48;;;15.88;;
64826;SDS011;51265;53.972;12.286;2023-06-26T14:19:32;18.02;;;12.65;;
64826;SDS011;51265;53.972;12.286;2023-06-26T14:21:58;15.38;;;10.57;;
64826;SDS011;51265;53.972;12.286;2023-06-26T14:24:25;14.40;;;8.45;;
64826;SDS011;51265;53.972;12.286;2023-06-26T14:26:51;11.82;;;8.40;;
64826;SDS011;51265;53.972;12.286;2023-06-26T14:29:18;12.85;;;9.00;;
64826;SDS011;51265;53.972;12.286;2023-06-26T14:31:46;14.15;;;10.50;;
64826;SDS011;51265;53.972;12.286;2023-06-26T14:34:13;18.33;;;11.20;;
64826;SDS011;51265;53.972;12.286;2023-06-26T14:36:39;16.38;;;11.57;;
64826;SDS011;51265;53.972;12.286;2023-06-26T14:39:06;17.02;;;12.85;;
64826;SDS011;51265;53.972;12.286;2023-06-26T14:41:32;18.33;;;13.68;;
64826;SDS011;51265;53.972;12.286;2023-06-26T14:43:59;20.10;;;14.45;;
64826;SDS011;51265;53.972;12.286;2023-06-26T14:46:25;20.95;;;15.70;;
64826;SDS011;51265;53.972;12.286;2023-06-26T14:48:51;21.95;;;15.88;;
64826;SDS011;51265;53.972;12.286;2023-06-26T14:51:18;24.00;;;17.45;;
64826;SDS011;51265;53.972;12.286;2023-06-26T14:53:45;20.33;;;16.65;;
64826;SDS011;51265;53.972;12.286;2023-06-26T14:56:11;22.50;;;16.20;;
64826;SDS011;51265;53.972;12.286;2023-06-26T14:58:38;18.60;;;15.40;;